createdAt,value
2023-05-15T00:02:49.411Z,10.30
2023-05-15T00:09:32.453Z,9.48
2023-05-15T00:16:14.820Z,10.43
2023-05-15T00:22:58.190Z,10.23
2023-05-15T00:29:40.527Z,11.32
2023-05-15T00:36:24.258Z,10.70
2023-05-15T00:43:06.737Z,11.85
2023-05-15T00:49:51.094Z,10.55
2023-05-15T00:56:35.139Z,10.15
2023-05-15T01:03:18.040Z,9.93
2023-05-15T01:10:02.107Z,9.90
2023-05-15T01:16:44.437Z,9.35
2023-05-15T01:24:04.289Z,9.60
2023-05-15T01:30:48.879Z,9.15
2023-05-15T01:37:34.289Z,9.50
2023-05-15T01:44:31.524Z,9.13
2023-05-15T01:51:19.062Z,8.70
2023-05-15T01:58:02.929Z,7.88
2023-05-15T02:04:46.122Z,8.45
2023-05-15T02:11:28.501Z,8.32
2023-05-15T02:18:11.215Z,9.13
2023-05-15T02:24:53.646Z,8.73
2023-05-15T02:31:38.518Z,9.77
2023-05-15T02:38:28.327Z,10.38
2023-05-15T02:45:11.844Z,9.57
2023-05-15T02:51:54.369Z,9.88
2023-05-15T02:58:37.729Z,10.00
2023-05-15T03:05:20.191Z,9.40
2023-05-15T03:12:02.519Z,10.45
2023-05-15T03:18:45.022Z,9.95
2023-05-15T03:25:27.668Z,9.85
2023-05-15T03:32:10.373Z,10.05
2023-05-15T03:38:52.901Z,8.48
2023-05-15T03:45:35.796Z,8.48
2023-05-15T03:52:18.230Z,8.00
2023-05-15T03:59:00.565Z,8.90
2023-05-15T04:05:42.862Z,6.60
2023-05-15T04:12:28.307Z,6.60
2023-05-15T04:19:10.841Z,7.18
2023-05-15T04:25:53.617Z,6.50
2023-05-15T04:32:36.373Z,7.10
2023-05-15T04:39:18.896Z,7.40
2023-05-15T04:46:01.261Z,6.50
2023-05-15T04:52:43.608Z,6.05
2023-05-15T04:59:27.520Z,6.30
2023-05-15T05:06:09.839Z,5.85
2023-05-15T05:12:52.794Z,5.38
2023-05-15T05:19:35.222Z,5.03
2023-05-15T05:26:17.530Z,5.18
2023-05-15T05:32:59.802Z,4.95
2023-05-15T05:39:42.352Z,4.85
2023-05-15T05:46:24.864Z,4.97
2023-05-15T05:53:07.168Z,4.88
2023-05-15T05:59:49.899Z,5.00
2023-05-15T06:06:32.179Z,5.25
2023-05-15T06:13:17.337Z,4.95
2023-05-15T06:19:59.753Z,5.28
2023-05-15T06:26:42.123Z,5.00
2023-05-15T06:33:24.425Z,4.68
2023-05-15T06:40:07.270Z,4.25
2023-05-15T06:46:49.810Z,4.50
2023-05-15T06:53:32.205Z,4.10
2023-05-15T07:00:15.019Z,4.43
2023-05-15T07:06:57.694Z,4.20
2023-05-15T07:13:40.042Z,4.43
2023-05-15T07:20:22.636Z,3.95
2023-05-15T07:27:05.265Z,4.78
2023-05-15T07:33:47.576Z,3.63
2023-05-15T07:40:30.020Z,4.53
2023-05-15T07:47:12.422Z,3.65
2023-05-15T07:53:54.968Z,4.70
2023-05-15T08:00:38.067Z,3.83
2023-05-15T08:07:20.704Z,3.67
2023-05-15T08:14:03.025Z,3.05
2023-05-15T08:20:45.873Z,3.60
2023-05-15T08:27:28.227Z,3.45
2023-05-15T08:34:10.793Z,3.67
2023-05-15T08:40:57.367Z,2.90
2023-05-15T08:47:41.209Z,2.78
2023-05-15T08:54:24.424Z,3.03
2023-05-15T09:01:07.038Z,3.33
2023-05-15T09:07:51.113Z,3.35
2023-05-15T09:14:33.649Z,2.90
2023-05-15T09:21:42.532Z,3.08
2023-05-15T09:28:34.183Z,3.30
2023-05-15T09:35:38.066Z,3.20
2023-05-15T09:42:20.346Z,3.88
2023-05-15T09:49:02.859Z,3.60
2023-05-15T09:55:45.261Z,3.05
2023-05-15T10:02:32.239Z,3.13
2023-05-15T10:09:15.461Z,3.17
2023-05-15T10:15:58.776Z,3.22
2023-05-15T10:22:45.290Z,3.00
2023-05-15T10:29:29.208Z,2.95
2023-05-15T10:36:12.560Z,2.83
2023-05-15T10:42:56.700Z,2.65
2023-05-15T10:49:39.080Z,1.90
2023-05-15T10:56:26.109Z,2.30
2023-05-15T11:03:08.760Z,2.53
2023-05-15T11:09:51.796Z,2.70
2023-05-15T11:16:53.006Z,3.00
2023-05-15T11:23:40.869Z,2.63
2023-05-15T11:30:33.782Z,2.60
2023-05-15T11:37:19.331Z,2.72
2023-05-15T11:44:01.694Z,2.58
2023-05-15T11:50:45.605Z,2.60
2023-05-15T11:57:28.459Z,3.03
2023-05-15T12:04:15.237Z,2.80
2023-05-15T12:10:59.334Z,2.58
2023-05-15T12:17:42.394Z,2.70
2023-05-15T12:24:26.492Z,2.40
2023-05-15T12:31:11.318Z,2.67
2023-05-15T12:37:54.000Z,2.80
2023-05-15T12:44:36.949Z,2.65
2023-05-15T12:51:22.281Z,2.33
2023-05-15T12:58:07.137Z,2.22
2023-05-15T13:04:49.387Z,2.40
2023-05-15T13:11:31.853Z,2.80
2023-05-15T13:18:18.356Z,3.00
2023-05-15T13:25:00.667Z,2.92
2023-05-15T13:31:43.114Z,3.17
2023-05-15T13:38:25.732Z,3.67
2023-05-15T13:45:15.960Z,3.30
2023-05-15T13:51:58.448Z,3.20
2023-05-15T13:58:41.425Z,2.80
2023-05-15T14:05:23.743Z,2.60
2023-05-15T14:12:06.258Z,2.83
2023-05-15T14:18:48.644Z,3.33
2023-05-15T14:25:30.975Z,3.25
2023-05-15T14:32:13.398Z,2.80
2023-05-15T14:38:56.499Z,3.03
2023-05-15T14:45:39.899Z,3.35
2023-05-15T14:52:22.235Z,3.28
2023-05-15T14:59:04.491Z,5.18
2023-05-15T15:05:46.821Z,4.20
2023-05-15T15:12:29.139Z,2.47
2023-05-15T15:19:12.148Z,2.50
2023-05-15T15:25:54.673Z,3.47
2023-05-15T15:32:39.097Z,3.70
2023-05-15T15:39:21.516Z,3.63
2023-05-15T15:46:03.895Z,4.90
2023-05-15T15:52:46.713Z,5.43
2023-05-15T15:59:29.065Z,5.97
2023-05-15T16:06:11.338Z,5.72
2023-05-15T16:12:53.769Z,5.82
2023-05-15T16:19:36.271Z,5.63
2023-05-15T16:26:18.623Z,6.50
2023-05-15T16:33:03.426Z,5.47
2023-05-15T16:39:45.808Z,5.18
2023-05-15T16:46:28.146Z,5.13
2023-05-15T16:53:10.583Z,4.57
2023-05-15T16:59:53.271Z,4.43
2023-05-15T17:06:35.698Z,4.18
2023-05-15T17:13:17.960Z,3.17
2023-05-15T17:20:01.885Z,3.00
2023-05-15T17:26:45.194Z,3.42
2023-05-15T17:33:27.558Z,2.88
2023-05-15T17:40:10.220Z,2.63
2023-05-15T17:46:52.582Z,3.00
2023-05-15T17:53:34.966Z,3.58
2023-05-15T18:00:17.604Z,3.53
2023-05-15T18:06:59.941Z,3.40
2023-05-15T18:13:42.720Z,3.78
2023-05-15T18:20:25.555Z,3.78
2023-05-15T18:27:07.832Z,3.88
2023-05-15T18:33:50.348Z,4.45
2023-05-15T18:40:32.617Z,4.50
2023-05-15T18:47:15.202Z,5.10
2023-05-15T18:53:57.461Z,4.97
2023-05-15T19:00:39.748Z,5.45
2023-05-15T19:07:23.003Z,5.47
2023-05-15T19:14:05.526Z,5.30
2023-05-15T19:20:51.808Z,4.60
2023-05-15T19:27:34.764Z,5.28
2023-05-15T19:34:17.133Z,5.55
2023-05-15T19:40:59.518Z,6.25
2023-05-15T19:47:42.839Z,5.60
2023-05-15T19:54:25.287Z,5.20
2023-05-15T20:01:07.808Z,5.30
2023-05-15T20:07:50.183Z,5.75
2023-05-15T20:14:34.177Z,5.78
2023-05-15T20:21:16.735Z,6.35
2023-05-15T20:28:00.734Z,6.35
2023-05-15T20:34:45.746Z,5.80
2023-05-15T20:41:28.170Z,6.32
2023-05-15T20:48:11.195Z,6.35
2023-05-15T20:54:53.735Z,6.85
2023-05-15T21:01:36.371Z,7.53
2023-05-15T21:08:19.277Z,6.60
2023-05-15T21:15:02.348Z,7.10
2023-05-15T21:21:44.618Z,7.20
2023-05-15T21:28:27.211Z,7.65
2023-05-15T21:35:10.042Z,7.55
2023-05-15T21:41:52.390Z,7.90
2023-05-15T21:57:21.226Z,7.10
2023-05-15T22:04:04.093Z,7.93
2023-05-15T22:10:46.468Z,7.15
2023-05-15T22:17:30.632Z,7.82
2023-05-15T22:24:13.190Z,7.80
2023-05-15T22:30:55.757Z,8.20
2023-05-15T22:37:38.330Z,8.45
2023-05-15T22:44:20.673Z,8.75
2023-05-15T22:51:02.975Z,10.18
2023-05-15T22:57:45.444Z,10.30
2023-05-15T23:04:27.866Z,9.00
2023-05-15T23:11:10.231Z,11.10
2023-05-15T23:17:52.709Z,9.95
2023-05-15T23:24:34.961Z,10.57
2023-05-15T23:31:17.391Z,11.18
2023-05-15T23:37:59.734Z,10.43
2023-05-15T23:44:42.101Z,10.35
2023-05-15T23:51:24.923Z,10.88
2023-05-15T23:58:07.759Z,10.10
